Aguacaliente, Mexico

2:55 PM CDT on April 30, 2017 (GMT -0500)
Villa Corona | | Change Station

Elev 4200 ft 20.39 °N, 103.65 °W | Updated 2 minutes ago

Clear
Clear
87.0 °F
Feels Like 83 °F
N
1.0
Wind Variable Wind from SSW
Gusts 4.0 mph

Today
High -- | Low -- °F
--% Chance of Precip.
Yesterday
High -- | Low -- °F
Precip. -- in
Pressure 30.14 in
Visibility 7.0 miles
Clouds Clear
Heat Index 83 °F
Dew Point 34 °F
Humidity 15%
Rainfall 0.00 in
Snow Depth Not available.
7:25 AM 8:19 PM
Waxing Crescent, 25% visible
METAR MMGL 301849Z 33008KT 7SM SKC 28/M05 A3014 RMK HZY/CI
Pressure 30.14 in
Visibility 7.0 miles
Clouds Clear
Heat Index 83 °F
Dew Point 34 °F
Humidity 15%
Rainfall 0.00 in
Snow Depth Not available.
7:25 AM 8:19 PM
Waxing Crescent, 25% visible
METAR MMGL 301849Z 33008KT 7SM SKC 28/M05 A3014 RMK HZY/CI

Get Severe Weather Alerts

Thanks for signing up!

Be on the lookout for a verification email in your inbox.

You'll start receiving the daily forecast at 8 AM.

×

10-Day Weather Forecast

No radar image for this location.
×

Almanac

Astronomy

Apr. 30, 2017 Rise Set
Actual Time
Civil Twilight
Nautical Twilight
Astronomical Twilight
Moon
Length of Visible Light
Length of Day
Tomorrow will be .
, % of the Moon is Illuminated

Today's Extremes

Country Highs Country Lows

Community

WunderPhotos

WunderBlog® & News

Nearby

Air Quality

  Air Quality AQ Index Pollutant
Not available.

Snow Depth

Station Depth Elevation

Earthquake Activity

City Distance Mag. Time & Date
Minimum magnitude displayed is 2.5.

Coastal Water Temperatures

Place Temperature

Stations

Nearby Weather Stations

Station Location Temp. Windchill Dew Point Humidity Wind Precip. Elev Updated Type